createdAt,value
2023-10-10T00:03:18.315Z,101969.41
2023-10-10T00:08:19.871Z,101970.63
2023-10-10T00:13:21.462Z,101969.06
2023-10-10T00:18:23.302Z,101971.69
2023-10-10T00:23:24.847Z,101970.19
2023-10-10T00:28:26.380Z,101977.22
2023-10-10T00:33:27.917Z,101971.19
2023-10-10T00:38:29.446Z,101971.34
2023-10-10T00:43:31.015Z,101965.34
2023-10-10T00:48:34.750Z,101959.28
2023-10-10T00:53:39.476Z,101962.03
2023-10-10T00:58:41.042Z,101961.34
2023-10-10T01:03:43.968Z,101963.06
2023-10-10T01:08:53.912Z,101966.31
2023-10-10T01:13:55.445Z,101968.09
2023-10-10T01:18:57.151Z,101965.44
2023-10-10T01:23:59.494Z,101964.69
2023-10-10T01:29:01.013Z,101959.56
2023-10-10T01:34:02.683Z,101955.28
2023-10-10T01:39:14.068Z,101956.09
2023-10-10T01:44:16.035Z,101956.91
2023-10-10T01:49:18.328Z,101952.78
2023-10-10T01:54:19.889Z,101945.19
2023-10-10T01:59:21.454Z,101947.91
2023-10-10T02:04:23.091Z,101960.31
2023-10-10T02:09:25.064Z,101971.56
2023-10-10T02:14:26.785Z,101961.19
2023-10-10T02:19:29.556Z,101954.31
2023-10-10T02:24:32.677Z,101956.97
2023-10-10T02:29:34.306Z,101955.16
2023-10-10T02:34:36.823Z,101951.72
2023-10-10T02:39:38.329Z,101956.31
2023-10-10T02:44:40.051Z,101944.41
2023-10-10T02:49:42.147Z,101945.50
2023-10-10T02:54:44.085Z,101951.56
2023-10-10T02:59:45.593Z,101953.22
2023-10-10T03:04:48.042Z,101958.28
2023-10-10T03:09:49.655Z,101953.88
2023-10-10T03:14:51.472Z,101959.72
2023-10-10T03:19:53.531Z,101958.75
2023-10-10T03:24:55.790Z,101966.53
2023-10-10T03:29:57.432Z,101968.44
2023-10-10T03:34:59.790Z,101966.59
2023-10-10T03:40:01.458Z,101963.84
2023-10-10T03:45:03.128Z,101959.38
2023-10-10T03:50:04.980Z,101944.47
2023-10-10T03:55:06.718Z,101941.81
2023-10-10T04:00:08.763Z,101940.91
2023-10-10T04:05:26.374Z,101939.16
2023-10-10T04:10:29.032Z,101943.50
2023-10-10T04:15:34.300Z,101944.09
2023-10-10T04:20:35.889Z,101944.09
2023-10-10T04:25:37.457Z,101944.84
2023-10-10T04:30:39.011Z,101944.09
2023-10-10T04:35:40.554Z,101939.53
2023-10-10T04:40:42.347Z,101937.81
2023-10-10T04:45:43.851Z,101937.66
2023-10-10T04:50:52.725Z,101935.00
2023-10-10T04:55:54.224Z,101932.47
2023-10-10T05:00:55.683Z,101937.66
2023-10-10T05:05:58.700Z,101933.22
2023-10-10T05:11:00.181Z,101936.91
2023-10-10T05:16:05.807Z,101940.19
2023-10-10T05:21:07.169Z,101943.44
2023-10-10T05:26:14.695Z,101941.03
2023-10-10T05:31:16.267Z,101947.84
2023-10-10T05:36:17.757Z,101958.88
2023-10-10T05:41:19.251Z,101949.22
2023-10-10T05:46:20.813Z,101948.25
2023-10-10T05:51:22.437Z,101948.16
2023-10-10T05:56:24.019Z,101941.06
2023-10-10T06:01:25.562Z,101945.16
2023-10-10T06:06:27.031Z,101938.88
2023-10-10T06:11:28.890Z,101942.94
2023-10-10T06:16:30.457Z,101944.34
2023-10-10T06:21:31.971Z,101951.81
2023-10-10T06:26:33.500Z,101958.28
2023-10-10T06:31:36.017Z,101963.09
2023-10-10T06:36:37.810Z,101961.16
2023-10-10T06:41:39.352Z,101958.41
2023-10-10T06:46:41.961Z,101954.69
2023-10-10T06:51:43.512Z,101944.09
2023-10-10T06:56:49.525Z,101946.63
2023-10-10T07:01:50.973Z,101939.81
2023-10-10T07:06:52.413Z,101950.94
2023-10-10T07:11:55.430Z,101949.06
2023-10-10T07:16:56.892Z,101952.44
2023-10-10T07:21:58.950Z,101959.00
2023-10-10T07:27:00.425Z,101959.19
2023-10-10T07:32:01.895Z,101954.16
2023-10-10T07:37:03.707Z,101957.38
2023-10-10T07:42:05.186Z,101951.16
2023-10-10T07:47:06.757Z,101943.56
2023-10-10T07:52:08.336Z,101946.22
2023-10-10T07:57:09.779Z,101951.63
2023-10-10T08:02:11.290Z,101949.03
2023-10-10T08:07:12.752Z,101946.59
2023-10-10T08:12:15.140Z,101944.44
2023-10-10T08:17:16.651Z,101947.75
2023-10-10T08:22:19.802Z,101935.91
2023-10-10T08:27:21.364Z,101935.03
2023-10-10T08:32:23.000Z,101944.13
2023-10-10T08:37:24.549Z,101941.63
2023-10-10T08:42:27.623Z,101947.75
2023-10-10T08:47:29.222Z,101944.75
2023-10-10T08:52:31.868Z,101929.59
2023-10-10T08:57:33.316Z,101922.19
2023-10-10T09:02:35.356Z,101923.34
2023-10-10T09:07:37.057Z,101921.88
2023-10-10T09:12:38.848Z,101925.06
2023-10-10T09:17:41.050Z,101927.69
2023-10-10T09:22:42.689Z,101924.78
2023-10-10T09:27:58.820Z,101911.13
2023-10-10T09:33:01.193Z,101905.72
2023-10-10T09:38:03.958Z,101901.47
2023-10-10T09:43:10.499Z,101892.69
2023-10-10T09:48:12.428Z,101892.06
2023-10-10T09:53:14.317Z,101888.25
2023-10-10T09:58:16.882Z,101878.09
2023-10-10T10:03:20.772Z,101873.13
2023-10-10T10:08:25.224Z,101873.31
2023-10-10T10:13:42.010Z,101871.94
2023-10-10T10:18:44.049Z,101876.03
2023-10-10T10:23:48.800Z,101871.41
2023-10-10T10:28:50.333Z,101864.69
2023-10-10T10:34:09.267Z,101857.47
2023-10-10T10:39:22.354Z,101834.84
2023-10-10T10:44:29.219Z,101808.59
2023-10-10T10:49:39.394Z,101802.53
2023-10-10T10:54:44.491Z,101789.97
2023-10-10T10:59:50.950Z,101775.44
2023-10-10T11:04:52.474Z,101772.72
2023-10-10T11:09:54.670Z,101742.91
2023-10-10T11:14:57.360Z,101734.03
2023-10-10T11:19:58.892Z,101743.09
2023-10-10T11:25:00.567Z,101732.84
2023-10-10T11:30:05.624Z,101738.09
2023-10-10T11:35:07.487Z,101736.75
2023-10-10T11:40:15.360Z,101738.53
2023-10-10T11:45:17.908Z,101735.50
2023-10-10T11:50:20.456Z,101729.47
2023-10-10T11:55:21.980Z,101734.66
2023-10-10T12:00:27.871Z,101740.13
2023-10-10T12:05:29.904Z,101736.34
2023-10-10T12:10:31.404Z,101721.31
2023-10-10T12:15:32.833Z,101706.81
2023-10-10T12:20:34.321Z,101700.41
2023-10-10T12:25:35.811Z,101699.47
2023-10-10T12:30:40.739Z,101692.47
2023-10-10T12:35:45.215Z,101692.63
2023-10-10T12:40:46.713Z,101684.88
2023-10-10T12:45:48.245Z,101687.50
2023-10-10T12:50:53.481Z,101685.59
2023-10-10T12:55:55.100Z,101684.25
2023-10-10T13:00:57.028Z,101695.91
2023-10-10T13:05:59.949Z,101700.28
2023-10-10T13:11:01.478Z,101716.06
2023-10-10T13:16:02.945Z,101685.19
2023-10-10T13:21:04.532Z,101656.09
2023-10-10T13:26:06.002Z,101678.25
2023-10-10T13:31:07.461Z,101644.88
2023-10-10T13:36:10.761Z,101634.50
2023-10-10T13:41:12.227Z,101635.88
2023-10-10T13:46:14.783Z,101635.56
2023-10-10T13:51:17.364Z,101624.56
2023-10-10T13:56:18.859Z,101624.94
2023-10-10T14:01:20.522Z,101623.97
2023-10-10T14:06:22.280Z,101622.53
2023-10-10T14:11:23.798Z,101604.47
2023-10-10T14:16:26.396Z,101603.28
2023-10-10T14:21:28.399Z,101603.75
2023-10-10T14:26:29.911Z,101593.50
2023-10-10T14:31:32.524Z,101579.50
2023-10-10T14:36:34.260Z,101596.63
2023-10-10T14:41:36.177Z,101600.41
2023-10-10T14:46:37.728Z,101588.72
2023-10-10T14:51:39.277Z,101577.16
2023-10-10T14:56:42.367Z,101565.56
2023-10-10T15:01:43.850Z,101548.78
2023-10-10T15:06:49.809Z,101538.69
2023-10-10T15:11:53.797Z,101532.00
2023-10-10T15:16:55.392Z,101532.16
2023-10-10T15:21:56.857Z,101531.16
2023-10-10T15:26:59.177Z,101536.16
2023-10-10T15:32:00.630Z,101539.50
2023-10-10T15:37:02.103Z,101540.22
2023-10-10T15:42:03.651Z,101542.22
2023-10-10T15:47:05.219Z,101539.38
2023-10-10T15:52:06.704Z,101537.50
2023-10-10T15:57:08.170Z,101531.16
2023-10-10T16:02:09.814Z,101545.44
2023-10-10T16:07:11.483Z,101543.28
2023-10-10T16:12:13.038Z,101542.78
2023-10-10T16:17:14.581Z,101536.91
2023-10-10T16:22:16.274Z,101532.78
2023-10-10T16:27:17.901Z,101542.47
2023-10-10T16:32:19.922Z,101540.91
2023-10-10T16:37:21.480Z,101531.50
2023-10-10T16:42:22.933Z,101530.81
2023-10-10T16:47:24.414Z,101523.19
2023-10-10T16:52:25.884Z,101506.69
2023-10-10T16:57:27.379Z,101498.25
2023-10-10T17:02:29.747Z,101491.56
2023-10-10T17:07:32.138Z,101483.00
2023-10-10T17:12:33.665Z,101497.09
2023-10-10T17:17:35.179Z,101489.38
2023-10-10T17:22:36.766Z,101473.81
2023-10-10T17:27:38.269Z,101471.31
2023-10-10T17:32:39.820Z,101497.31
2023-10-10T17:37:41.351Z,101485.19
2023-10-10T17:42:46.647Z,101468.50
2023-10-10T17:47:48.346Z,101471.31
2023-10-10T17:52:50.150Z,101474.66
2023-10-10T17:57:51.626Z,101466.63
2023-10-10T18:02:53.228Z,101468.25
2023-10-10T18:07:54.749Z,101462.22
2023-10-10T18:12:56.216Z,101457.94
2023-10-10T18:17:58.069Z,101461.59
2023-10-10T18:22:59.819Z,101446.03
2023-10-10T18:28:01.546Z,101441.69
2023-10-10T18:33:06.047Z,101450.22
2023-10-10T18:38:08.277Z,101451.25
2023-10-10T18:43:09.711Z,101442.63
2023-10-10T18:48:11.330Z,101435.94
2023-10-10T18:53:12.896Z,101424.88
2023-10-10T18:58:14.379Z,101422.38
2023-10-10T19:03:15.967Z,101416.00
2023-10-10T19:08:18.318Z,101413.63
2023-10-10T19:13:19.895Z,101412.88
2023-10-10T19:18:21.458Z,101403.63
2023-10-10T19:23:23.020Z,101397.78
2023-10-10T19:28:24.494Z,101400.38
2023-10-10T19:33:26.019Z,101391.00
2023-10-10T19:38:27.591Z,101374.81
2023-10-10T19:43:29.039Z,101376.84
2023-10-10T19:48:30.749Z,101369.00
2023-10-10T19:53:32.493Z,101373.06
2023-10-10T19:58:33.964Z,101371.63
2023-10-10T20:03:35.666Z,101365.16
2023-10-10T20:08:37.364Z,101363.00
2023-10-10T20:13:38.914Z,101356.53
2023-10-10T20:18:40.463Z,101345.56
2023-10-10T20:23:42.937Z,101342.56
2023-10-10T20:28:44.814Z,101340.38
2023-10-10T20:33:46.394Z,101341.59
2023-10-10T20:38:48.105Z,101350.78
2023-10-10T20:43:49.817Z,101332.88
2023-10-10T20:48:51.360Z,101330.66
2023-10-10T20:53:52.949Z,101325.06
2023-10-10T20:58:54.656Z,101304.53
2023-10-10T21:03:56.294Z,101315.38
2023-10-10T21:08:57.883Z,101307.94
2023-10-10T21:13:59.529Z,101305.44
2023-10-10T21:19:01.034Z,101316.41
2023-10-10T21:24:02.534Z,101318.91
2023-10-10T21:29:04.143Z,101312.13
2023-10-10T21:34:05.765Z,101293.03
2023-10-10T21:39:07.533Z,101292.44
2023-10-10T21:44:08.987Z,101285.44
2023-10-10T21:49:10.734Z,101280.34
2023-10-10T21:54:12.255Z,101269.22
2023-10-10T21:59:13.827Z,101266.88
2023-10-10T22:04:15.452Z,101263.03
2023-10-10T22:09:17.238Z,101260.22
2023-10-10T22:14:18.845Z,101248.63
2023-10-10T22:19:20.326Z,101245.91
2023-10-10T22:24:21.825Z,101234.03
2023-10-10T22:29:23.317Z,101224.81
2023-10-10T22:34:24.808Z,101227.53
2023-10-10T22:39:26.305Z,101206.81
2023-10-10T22:44:28.049Z,101205.47
2023-10-10T22:49:29.549Z,101201.94
2023-10-10T22:54:31.310Z,101200.38
2023-10-10T22:59:32.836Z,101171.03
2023-10-10T23:04:34.437Z,101171.09
2023-10-10T23:09:36.027Z,101173.53
2023-10-10T23:14:37.506Z,101165.19
2023-10-10T23:19:39.085Z,101172.25
2023-10-10T23:24:40.605Z,101170.78
2023-10-10T23:29:42.099Z,101154.56
2023-10-10T23:34:43.594Z,101146.97
2023-10-10T23:39:45.056Z,101145.91
2023-10-10T23:44:47.272Z,101139.69
2023-10-10T23:49:48.790Z,101136.56
2023-10-10T23:54:50.689Z,101140.69
2023-10-10T23:59:52.175Z,101131.22
